createdAt,value
2019-03-27T00:00:54.123Z,3.42
2019-03-27T00:03:55.626Z,4.58
2019-03-27T00:06:57.132Z,4.67
2019-03-27T00:09:58.376Z,4.37
2019-03-27T00:12:59.367Z,3.42
2019-03-27T00:16:01.383Z,3.90
2019-03-27T00:19:02.632Z,3.55
2019-03-27T00:22:04.934Z,4.03
2019-03-27T00:25:00.387Z,4.35
2019-03-27T00:28:01.515Z,3.50
2019-03-27T00:31:02.503Z,4.62
2019-03-27T00:34:03.502Z,3.27
2019-03-27T00:37:00.783Z,3.85
2019-03-27T00:40:01.902Z,3.70
2019-03-27T00:43:02.887Z,3.62
2019-03-27T00:46:04.394Z,3.60
2019-03-27T00:49:05.642Z,3.15
2019-03-27T00:52:06.889Z,4.00
2019-03-27T00:55:08.143Z,3.12
2019-03-27T00:58:09.899Z,3.12
2019-03-27T01:01:14.479Z,3.58
2019-03-27T01:04:15.720Z,4.20
2019-03-27T01:07:16.713Z,3.47
2019-03-27T01:10:17.704Z,5.28
2019-03-27T01:13:18.705Z,6.10
2019-03-27T01:16:19.948Z,6.28
2019-03-27T01:19:21.962Z,5.92
2019-03-27T01:22:19.404Z,5.87
2019-03-27T01:25:21.640Z,6.40
2019-03-27T01:28:22.888Z,2.92
2019-03-27T01:31:24.390Z,2.70
2019-03-27T01:34:25.639Z,2.52
2019-03-27T01:37:27.145Z,2.37
2019-03-27T01:40:28.391Z,5.45
2019-03-27T01:43:31.184Z,5.17
2019-03-27T01:46:24.492Z,3.58
2019-03-27T01:49:26.759Z,6.08
2019-03-27T01:52:27.752Z,6.40
2019-03-27T01:55:29.257Z,5.30
2019-03-27T01:58:30.249Z,6.40
2019-03-27T02:01:31.244Z,5.97
2019-03-27T02:04:24.557Z,5.83
2019-03-27T02:07:25.800Z,6.55
2019-03-27T02:10:19.111Z,6.62
2019-03-27T02:13:20.104Z,6.35
2019-03-27T02:16:21.362Z,6.08
2019-03-27T02:19:22.344Z,6.17
2019-03-27T02:22:16.680Z,3.17
2019-03-27T02:25:15.210Z,5.90
2019-03-27T02:28:17.395Z,6.15
2019-03-27T02:31:18.891Z,6.47
2019-03-27T02:34:20.408Z,2.95
2019-03-27T02:37:22.674Z,3.10
2019-03-27T02:40:23.917Z,2.67
2019-03-27T02:43:25.163Z,4.62
2019-03-27T02:46:26.412Z,3.08
2019-03-27T02:49:27.405Z,2.42
2019-03-27T02:52:28.650Z,5.00
2019-03-27T02:55:22.221Z,2.95
2019-03-27T02:58:23.212Z,2.80
2019-03-27T03:01:24.200Z,5.92
2019-03-27T03:04:25.553Z,3.75
2019-03-27T03:07:26.444Z,2.40
2019-03-27T03:10:21.033Z,4.83
2019-03-27T03:13:23.823Z,2.70
2019-03-27T03:16:41.328Z,4.67
2019-03-27T03:19:26.323Z,6.47
2019-03-27T03:22:27.313Z,2.67
2019-03-27T03:25:22.155Z,3.40
2019-03-27T03:28:23.145Z,6.58
2019-03-27T03:31:24.403Z,6.08
2019-03-27T03:34:26.412Z,7.00
2019-03-27T03:37:19.729Z,2.98
2019-03-27T03:40:20.712Z,5.65
2019-03-27T03:43:21.970Z,2.80
2019-03-27T03:46:23.472Z,3.05
2019-03-27T03:49:24.457Z,3.92
2019-03-27T03:52:26.475Z,7.08
2019-03-27T03:55:21.066Z,3.85
2019-03-27T03:58:22.056Z,5.20
2019-03-27T04:01:23.049Z,7.12
2019-03-27T04:04:24.552Z,3.60
2019-03-27T04:07:15.048Z,4.17
2019-03-27T04:10:16.300Z,6.75
2019-03-27T04:13:17.288Z,7.25
2019-03-27T04:16:18.284Z,4.47
2019-03-27T04:19:19.275Z,3.65
2019-03-27T04:22:20.527Z,3.65
2019-03-27T04:25:21.770Z,7.08
2019-03-27T04:28:23.284Z,4.22
2019-03-27T04:31:24.265Z,3.20
2019-03-27T04:34:25.781Z,4.95
2019-03-27T04:37:26.761Z,3.77
2019-03-27T04:40:27.497Z,3.75
2019-03-27T04:43:28.744Z,3.20
2019-03-27T04:46:29.993Z,5.20
2019-03-27T04:49:31.239Z,2.83
2019-03-27T04:52:32.240Z,6.67
2019-03-27T04:55:33.225Z,4.45
2019-03-27T04:58:35.837Z,3.30
2019-03-27T05:01:36.999Z,6.90
2019-03-27T05:04:39.022Z,7.30
2019-03-27T05:07:41.037Z,4.08
2019-03-27T05:10:42.028Z,5.37
2019-03-27T05:13:50.698Z,3.45
2019-03-27T05:16:51.688Z,3.05
2019-03-27T05:19:52.680Z,3.30
2019-03-27T05:22:53.673Z,3.98
2019-03-27T05:25:55.441Z,3.27
2019-03-27T05:28:56.428Z,7.17
2019-03-27T05:31:57.927Z,4.22
2019-03-27T05:34:58.928Z,3.02
2019-03-27T05:38:00.936Z,3.15
2019-03-27T05:41:04.999Z,3.37
2019-03-27T05:44:05.990Z,3.72
2019-03-27T05:47:07.497Z,3.47
2019-03-27T05:50:08.746Z,7.50
2019-03-27T05:53:09.741Z,3.55
2019-03-27T05:56:10.988Z,4.30
2019-03-27T05:59:11.977Z,7.87
2019-03-27T06:02:12.967Z,7.25
2019-03-27T06:05:13.971Z,4.22
2019-03-27T06:08:15.207Z,8.15
2019-03-27T06:11:16.454Z,3.42
2019-03-27T06:14:17.715Z,7.00
2019-03-27T06:17:18.697Z,7.35
2019-03-27T06:20:19.945Z,3.58
2019-03-27T06:23:21.194Z,5.87
2019-03-27T06:26:22.712Z,7.03
2019-03-27T06:29:24.200Z,7.80
2019-03-27T06:32:25.964Z,3.40
2019-03-27T06:35:27.208Z,4.83
2019-03-27T06:38:29.488Z,2.90
2019-03-27T06:41:30.475Z,7.22
2019-03-27T06:44:31.978Z,3.25
2019-03-27T06:47:33.227Z,3.12
2019-03-27T06:50:35.238Z,3.50
2019-03-27T06:53:36.488Z,3.17
2019-03-27T06:56:37.481Z,5.08
2019-03-27T06:59:39.243Z,3.10
2019-03-27T07:02:40.251Z,3.10
2019-03-27T07:05:42.247Z,8.65
2019-03-27T07:08:42.986Z,3.98
2019-03-27T07:11:43.979Z,8.10
2019-03-27T07:17:57.993Z,5.87
2019-03-27T07:20:59.248Z,3.75
2019-03-27T07:24:00.487Z,3.08
2019-03-27T07:27:01.482Z,4.05
2019-03-27T07:29:59.338Z,3.83
2019-03-27T07:33:01.415Z,4.05
2019-03-27T07:36:02.408Z,3.65
2019-03-27T07:39:10.942Z,4.05
2019-03-27T07:42:04.907Z,3.80
2019-03-27T07:45:05.896Z,3.20
2019-03-27T07:48:06.888Z,3.52
2019-03-27T07:51:00.226Z,3.47
2019-03-27T07:54:01.707Z,4.75
2019-03-27T07:57:02.953Z,4.55
2019-03-27T08:00:03.951Z,5.20
2019-03-27T08:03:02.067Z,4.25
2019-03-27T08:06:02.605Z,5.35
2019-03-27T08:09:03.600Z,6.47
2019-03-27T08:12:04.846Z,4.95
2019-03-27T08:15:06.617Z,7.55
2019-03-27T08:18:08.106Z,8.30
2019-03-27T08:21:09.352Z,6.62
2019-03-27T08:24:12.409Z,5.67
2019-03-27T08:27:14.662Z,6.58
2019-03-27T08:30:15.668Z,6.60
2019-03-27T08:33:17.174Z,6.80
2019-03-27T08:36:18.154Z,5.55
2019-03-27T08:39:21.202Z,5.15
2019-03-27T08:42:23.470Z,4.33
2019-03-27T08:45:25.015Z,6.50
2019-03-27T08:48:26.217Z,4.28
2019-03-27T08:51:27.470Z,5.55
2019-03-27T08:54:28.714Z,4.65
2019-03-27T08:57:30.476Z,3.33
2019-03-27T09:00:24.042Z,3.55
2019-03-27T09:03:26.576Z,3.87
2019-03-27T09:06:17.003Z,2.22
2019-03-27T09:09:18.835Z,3.50
2019-03-27T09:12:12.390Z,3.20
2019-03-27T09:15:13.383Z,3.27
2019-03-27T09:18:16.879Z,4.37
2019-03-27T09:21:16.392Z,3.77
2019-03-27T09:24:17.396Z,4.30
2019-03-27T09:27:18.377Z,3.95
2019-03-27T09:30:19.624Z,4.33
2019-03-27T09:33:20.623Z,4.60
2019-03-27T09:36:21.865Z,4.75
2019-03-27T09:39:23.624Z,4.75
2019-03-27T09:42:22.389Z,4.03
2019-03-27T09:45:23.562Z,3.47
2019-03-27T09:48:28.151Z,3.65
2019-03-27T09:51:29.386Z,2.92
2019-03-27T09:54:30.647Z,3.58
2019-03-27T09:57:36.245Z,2.30
2019-03-27T10:00:40.050Z,2.15
2019-03-27T10:03:41.293Z,2.55
2019-03-27T10:06:42.285Z,2.85
2019-03-27T10:09:43.527Z,2.00
2019-03-27T10:13:41.865Z,2.58
2019-03-27T10:16:43.111Z,2.75
2019-03-27T10:19:44.361Z,3.02
2019-03-27T10:22:45.362Z,2.67
2019-03-27T10:25:38.921Z,2.85
2019-03-27T10:28:40.934Z,2.33
2019-03-27T10:31:42.193Z,4.05
2019-03-27T10:34:43.177Z,2.55
2019-03-27T10:37:44.438Z,2.70
2019-03-27T10:40:45.671Z,2.55
2019-03-27T10:43:46.669Z,3.02
2019-03-27T10:46:48.426Z,2.52
2019-03-27T10:49:49.673Z,2.77
2019-03-27T10:52:50.665Z,3.75
2019-03-27T10:55:51.923Z,4.05
2019-03-27T10:58:53.164Z,4.28
2019-03-27T11:01:54.431Z,3.60
2019-03-27T11:08:03.582Z,2.83
2019-03-27T11:11:04.554Z,4.10
2019-03-27T11:14:08.878Z,3.40
2019-03-27T11:17:03.725Z,4.50
2019-03-27T11:20:05.230Z,3.83
2019-03-27T11:23:07.496Z,3.50
2019-03-27T11:26:09.256Z,3.37
2019-03-27T11:29:11.016Z,5.00
2019-03-27T11:32:12.266Z,4.22
2019-03-27T11:35:13.255Z,3.72
2019-03-27T11:38:15.017Z,4.55
2019-03-27T11:41:16.011Z,5.78
2019-03-27T11:44:13.927Z,3.47
2019-03-27T11:47:11.347Z,4.50
2019-03-27T11:50:12.419Z,5.37
2019-03-27T11:53:13.581Z,3.75
2019-03-27T11:56:10.730Z,3.90
2019-03-27T11:59:11.721Z,5.40
2019-03-27T12:02:13.481Z,4.92
2019-03-27T12:05:14.726Z,4.17
2019-03-27T12:08:15.725Z,4.70
2019-03-27T12:11:16.712Z,5.33
2019-03-27T12:14:17.709Z,3.95
2019-03-27T12:17:18.959Z,4.47
2019-03-27T12:20:32.488Z,5.12
2019-03-27T12:23:34.508Z,6.37
2019-03-27T12:26:35.513Z,4.70
2019-03-27T12:29:36.237Z,4.53
2019-03-27T12:32:37.228Z,6.78
2019-03-27T12:35:38.223Z,4.60
2019-03-27T12:38:39.720Z,3.87
2019-03-27T12:41:41.741Z,4.67
2019-03-27T12:44:42.734Z,6.30
2019-03-27T12:47:44.243Z,5.75
2019-03-27T12:50:49.583Z,5.58
2019-03-27T12:53:50.568Z,5.10
2019-03-27T12:56:52.589Z,7.33
2019-03-27T12:59:53.322Z,4.35
2019-03-27T13:02:54.827Z,5.65
2019-03-27T13:05:55.818Z,5.65
2019-03-27T13:08:57.066Z,6.05
2019-03-27T13:11:59.593Z,4.85
2019-03-27T13:15:00.842Z,4.30
2019-03-27T13:18:02.358Z,4.47
2019-03-27T13:21:03.616Z,4.42
2019-03-27T13:24:04.841Z,6.40
2019-03-27T13:26:58.412Z,6.75
2019-03-27T13:29:59.656Z,5.42
2019-03-27T13:33:00.903Z,6.00
2019-03-27T13:36:02.152Z,4.05
2019-03-27T13:39:03.402Z,4.22
2019-03-27T13:42:04.649Z,4.15
2019-03-27T13:45:02.151Z,4.30
2019-03-27T13:48:03.305Z,5.67
2019-03-27T13:51:04.555Z,4.58
2019-03-27T13:54:05.799Z,4.72
2019-03-27T13:57:07.306Z,4.75
2019-03-27T14:00:11.635Z,3.60
2019-03-27T14:03:15.196Z,5.78
2019-03-27T14:06:23.712Z,4.97
2019-03-27T14:09:36.882Z,4.40
2019-03-27T14:12:43.113Z,5.05
2019-03-27T14:15:40.569Z,6.00
2019-03-27T14:18:48.838Z,3.80
2019-03-27T14:22:00.106Z,4.22
2019-03-27T14:25:10.797Z,4.28
2019-03-27T14:28:13.819Z,4.75
2019-03-27T14:31:22.225Z,5.35
2019-03-27T14:34:33.978Z,5.87
2019-03-27T14:37:37.784Z,4.97
2019-03-27T14:40:40.826Z,5.05
2019-03-27T14:43:52.824Z,5.70
2019-03-27T14:46:56.115Z,4.05
2019-03-27T14:49:55.311Z,4.58
2019-03-27T14:53:09.212Z,4.62
2019-03-27T14:56:10.616Z,5.78
2019-03-27T14:59:14.939Z,5.67
2019-03-27T15:02:17.970Z,7.50
2019-03-27T15:05:21.272Z,5.92
2019-03-27T15:08:34.560Z,4.80
2019-03-27T15:11:33.499Z,4.85
2019-03-27T15:14:38.904Z,6.53
2019-03-27T15:17:41.663Z,6.62
2019-03-27T15:20:42.612Z,6.33
2019-03-27T15:23:44.615Z,5.90
2019-03-27T15:26:45.612Z,8.08
2019-03-27T15:29:46.876Z,5.30
2019-03-27T15:32:47.847Z,6.78
2019-03-27T15:35:49.103Z,6.90
2019-03-27T15:38:50.345Z,6.65
2019-03-27T15:41:48.010Z,6.55
2019-03-27T15:44:50.051Z,6.92
2019-03-27T15:47:51.084Z,6.95
2019-03-27T15:50:57.161Z,6.85
2019-03-27T15:53:53.769Z,6.95
2019-03-27T15:56:55.270Z,7.28
2019-03-27T15:59:56.523Z,7.30
2019-03-27T16:02:57.774Z,7.20
2019-03-27T16:05:52.365Z,7.60
2019-03-27T16:08:53.607Z,7.03
2019-03-27T16:11:54.856Z,8.33
2019-03-27T16:14:56.105Z,6.50
2019-03-27T16:17:57.866Z,6.22
2019-03-27T16:20:55.271Z,8.35
2019-03-27T16:24:06.230Z,6.05
2019-03-27T16:27:04.335Z,7.12
2019-03-27T16:29:59.020Z,8.50
2019-03-27T16:33:00.009Z,6.55
2019-03-27T16:36:01.003Z,7.85
2019-03-27T16:39:02.765Z,7.37
2019-03-27T16:42:04.015Z,7.40
2019-03-27T16:45:05.513Z,8.20
2019-03-27T16:48:06.760Z,7.50
2019-03-27T16:51:08.007Z,7.28
2019-03-27T16:54:10.285Z,7.40
2019-03-27T16:57:11.528Z,8.23
2019-03-27T17:00:12.775Z,8.28
2019-03-27T17:03:14.028Z,7.37
2019-03-27T17:06:15.015Z,9.93
2019-03-27T17:09:12.170Z,7.30
2019-03-27T17:12:13.676Z,8.95
2019-03-27T17:15:14.924Z,10.55
2019-03-27T17:18:16.942Z,8.28
2019-03-27T17:21:18.190Z,9.03
2019-03-27T17:24:19.949Z,7.25
2019-03-27T17:27:21.449Z,8.28
2019-03-27T17:30:23.722Z,7.42
2019-03-27T17:33:24.717Z,7.03
2019-03-27T17:36:25.961Z,8.15
2019-03-27T17:39:21.070Z,7.53
2019-03-27T17:42:22.569Z,7.72
2019-03-27T17:45:23.816Z,9.73
2019-03-27T17:48:24.811Z,7.45
2019-03-27T17:51:26.057Z,7.62
2019-03-27T17:54:27.051Z,7.25
2019-03-27T17:57:28.301Z,8.08
2019-03-27T18:00:30.824Z,6.22
2019-03-27T18:03:32.073Z,8.38
2019-03-27T18:06:34.094Z,7.92
2019-03-27T18:09:31.480Z,6.75
2019-03-27T18:12:33.521Z,9.73
2019-03-27T18:15:26.826Z,6.28
2019-03-27T18:18:28.331Z,6.12
2019-03-27T18:21:21.900Z,8.40
2019-03-27T18:24:23.154Z,7.40
2019-03-27T18:27:24.395Z,6.53
2019-03-27T18:30:25.389Z,7.47
2019-03-27T18:33:26.634Z,6.87
2019-03-27T18:36:28.136Z,7.03
2019-03-27T18:39:21.963Z,10.43
2019-03-27T18:42:23.211Z,7.45
2019-03-27T18:45:24.456Z,7.67
2019-03-27T18:48:25.706Z,8.15
2019-03-27T18:51:26.957Z,7.03
2019-03-27T18:54:32.055Z,7.75
2019-03-27T18:57:33.296Z,8.05
2019-03-27T19:00:34.863Z,7.12
2019-03-27T19:03:37.063Z,7.12
2019-03-27T19:06:34.216Z,7.37
2019-03-27T19:09:37.513Z,6.45
2019-03-27T19:12:38.764Z,6.55
2019-03-27T19:15:40.014Z,7.45
2019-03-27T19:18:33.324Z,7.22
2019-03-27T19:21:34.570Z,7.00
2019-03-27T19:24:36.843Z,7.92
2019-03-27T19:27:38.614Z,8.18
2019-03-27T19:30:40.175Z,7.28
2019-03-27T19:33:41.095Z,6.70
2019-03-27T19:36:57.966Z,10.05
2019-03-27T19:40:01.107Z,8.68
2019-03-27T19:43:00.970Z,8.03
2019-03-27T19:46:02.491Z,9.28
2019-03-27T19:49:03.719Z,8.78
2019-03-27T19:52:04.971Z,9.63
2019-03-27T19:55:06.220Z,9.08
2019-03-27T19:58:08.744Z,8.73
2019-03-27T20:01:09.991Z,9.58
2019-03-27T20:04:12.778Z,9.15
2019-03-27T20:07:06.129Z,10.18
2019-03-27T20:10:07.086Z,8.60
2019-03-27T20:13:08.585Z,10.28
2019-03-27T20:16:09.584Z,10.98
2019-03-27T20:19:11.338Z,9.88
2019-03-27T20:22:12.842Z,11.97
2019-03-27T20:25:14.911Z,9.13
2019-03-27T20:28:15.849Z,11.22
2019-03-27T20:31:17.354Z,9.20
2019-03-27T20:34:18.600Z,9.60
2019-03-27T20:37:20.104Z,9.05
2019-03-27T20:40:21.098Z,9.75
2019-03-27T20:43:14.667Z,10.13
2019-03-27T20:46:24.915Z,12.45
2019-03-27T20:49:17.165Z,9.53
2019-03-27T20:52:18.668Z,12.33
2019-03-27T20:55:29.603Z,9.63
2019-03-27T20:58:23.741Z,12.45
2019-03-27T21:01:24.973Z,11.80
2019-03-27T21:04:26.222Z,8.98
2019-03-27T21:07:28.493Z,8.78
2019-03-27T21:10:21.800Z,9.18
2019-03-27T21:13:22.793Z,9.78
2019-03-27T21:16:24.305Z,9.15
2019-03-27T21:19:25.287Z,9.70
2019-03-27T21:22:18.857Z,8.58
2019-03-27T21:25:20.618Z,8.90
2019-03-27T21:28:21.865Z,11.80
2019-03-27T21:31:30.538Z,14.00
2019-03-27T21:34:31.791Z,7.60
2019-03-27T21:37:33.033Z,7.35
2019-03-27T21:40:27.624Z,8.23
2019-03-27T21:43:32.200Z,7.78
2019-03-27T21:46:33.450Z,11.50
2019-03-27T21:49:34.443Z,11.03
2019-03-27T21:52:35.688Z,7.75
2019-03-27T21:55:42.563Z,10.05
2019-03-27T21:58:45.357Z,8.28
2019-03-27T22:01:47.885Z,9.15
2019-03-27T22:04:49.131Z,13.45
2019-03-27T22:07:50.378Z,8.80
2019-03-27T22:10:51.626Z,11.28
2019-03-27T22:13:49.014Z,10.28
2019-03-27T22:16:46.187Z,8.50
2019-03-27T22:19:47.175Z,9.83
2019-03-27T22:22:44.489Z,8.48
2019-03-27T22:25:45.833Z,9.60
2019-03-27T22:28:47.087Z,8.35
2019-03-27T22:31:48.331Z,10.53
2019-03-27T22:34:45.810Z,9.28
2019-03-27T22:37:46.989Z,9.25
2019-03-27T22:40:48.491Z,10.45
2019-03-27T22:43:49.743Z,12.58
2019-03-27T22:46:52.008Z,10.75
2019-03-27T22:49:54.037Z,13.58
2019-03-27T22:52:58.605Z,10.72
2019-03-27T22:56:00.624Z,10.90
2019-03-27T22:59:02.122Z,11.97
2019-03-27T23:02:02.833Z,9.53
2019-03-27T23:05:04.875Z,9.10
2019-03-27T23:08:06.382Z,13.90
2019-03-27T23:11:07.427Z,13.55
2019-03-27T23:14:08.622Z,13.25
2019-03-27T23:17:09.869Z,10.38
2019-03-27T23:20:11.118Z,10.93
2019-03-27T23:23:12.619Z,9.15
2019-03-27T23:26:10.249Z,8.03
2019-03-27T23:29:12.041Z,9.43
2019-03-27T23:32:13.289Z,12.10
2019-03-27T23:35:06.858Z,10.18
2019-03-27T23:38:00.425Z,10.00
2019-03-27T23:40:55.018Z,9.78
2019-03-27T23:43:56.264Z,9.48
2019-03-27T23:46:58.550Z,10.18
2019-03-27T23:49:59.783Z,9.38
2019-03-27T23:53:03.439Z,9.13
2019-03-27T23:56:02.026Z,9.40
2019-03-27T23:59:03.273Z,9.40
